createdAt,value
2022-12-19T00:01:16.658Z,-1.00
2022-12-19T00:02:18.632Z,-0.96
2022-12-19T00:03:20.273Z,-1.00
2022-12-19T00:04:21.948Z,-0.90
2022-12-19T00:05:23.472Z,-0.89
2022-12-19T00:06:27.771Z,-0.89
2022-12-19T00:07:29.546Z,-0.93
2022-12-19T00:08:31.028Z,-0.92
2022-12-19T00:09:32.503Z,-0.99
2022-12-19T00:10:35.842Z,-1.10
2022-12-19T00:11:38.649Z,-1.16
2022-12-19T00:12:40.166Z,-1.11
2022-12-19T00:13:42.792Z,-1.21
2022-12-19T00:14:44.326Z,-1.22
2022-12-19T00:15:45.812Z,-1.26
2022-12-19T00:16:47.665Z,-1.29
2022-12-19T00:17:49.591Z,-1.34
2022-12-19T00:18:55.086Z,-1.28
2022-12-19T00:19:57.079Z,-1.33
2022-12-19T00:21:04.627Z,-1.30
2022-12-19T00:22:11.001Z,-1.27
2022-12-19T00:23:12.694Z,-1.20
2022-12-19T00:24:21.145Z,-1.18
2022-12-19T00:25:23.191Z,-1.21
2022-12-19T00:26:28.859Z,-1.12
2022-12-19T00:27:35.187Z,-1.12
2022-12-19T00:28:36.647Z,-1.12
2022-12-19T00:29:38.094Z,-1.11
2022-12-19T00:30:39.564Z,-1.11
2022-12-19T00:31:41.424Z,-1.20
2022-12-19T00:32:42.954Z,-1.16
2022-12-19T00:33:44.949Z,-1.11
2022-12-19T00:34:46.342Z,-1.18
2022-12-19T00:35:47.845Z,-1.23
2022-12-19T00:36:49.610Z,-1.29
2022-12-19T00:37:51.066Z,-1.45
2022-12-19T00:38:54.504Z,-1.40
2022-12-19T00:39:55.949Z,-1.35
2022-12-19T00:41:11.424Z,-1.42
2022-12-19T00:42:13.106Z,-1.38
2022-12-19T00:43:14.575Z,-1.37
2022-12-19T00:44:16.184Z,-1.34
2022-12-19T00:45:17.613Z,-1.35
2022-12-19T00:46:19.121Z,-1.41
2022-12-19T00:47:21.033Z,-1.39
2022-12-19T00:48:22.479Z,-1.30
2022-12-19T00:49:23.898Z,-1.36
2022-12-19T00:50:25.440Z,-1.34
2022-12-19T00:51:30.281Z,-1.32
2022-12-19T00:52:32.136Z,-1.32
2022-12-19T00:53:35.222Z,-1.29
2022-12-19T00:54:36.796Z,-1.25
2022-12-19T00:55:39.045Z,-1.21
2022-12-19T00:56:40.519Z,-1.16
2022-12-19T00:57:41.939Z,-1.08
2022-12-19T00:58:47.045Z,-1.06
2022-12-19T00:59:49.062Z,-1.12
2022-12-19T01:00:50.578Z,-1.15
2022-12-19T01:01:52.406Z,-1.25
2022-12-19T01:02:53.919Z,-1.31
2022-12-19T01:04:27.074Z,-1.27
2022-12-19T01:05:19.536Z,-1.24
2022-12-19T01:06:21.041Z,-1.22
2022-12-19T01:07:22.891Z,-1.19
2022-12-19T01:08:24.546Z,-1.14
2022-12-19T01:09:27.150Z,-1.16
2022-12-19T01:10:28.583Z,-1.22
2022-12-19T01:11:48.557Z,-1.33
2022-12-19T01:12:49.965Z,-1.33
2022-12-19T01:13:51.406Z,-1.25
2022-12-19T01:14:54.520Z,-1.18
2022-12-19T01:16:10.246Z,-1.19
2022-12-19T01:17:12.421Z,-1.20
2022-12-19T01:18:13.905Z,-1.19
2022-12-19T01:19:15.346Z,-1.19
2022-12-19T01:20:29.010Z,-1.17
2022-12-19T01:21:31.493Z,-1.16
2022-12-19T01:22:33.406Z,-1.22
2022-12-19T01:23:36.611Z,-1.21
2022-12-19T01:24:38.128Z,-1.17
2022-12-19T01:25:40.877Z,-1.12
2022-12-19T01:26:47.322Z,-1.11
2022-12-19T01:27:48.722Z,-1.08
2022-12-19T01:28:50.176Z,-1.12
2022-12-19T01:29:52.916Z,-1.11
2022-12-19T01:30:54.557Z,-1.10
2022-12-19T01:31:56.380Z,-1.15
2022-12-19T01:32:58.834Z,-1.17
2022-12-19T01:34:00.759Z,-1.16
2022-12-19T01:35:04.043Z,-1.10
2022-12-19T01:36:07.775Z,-1.03
2022-12-19T01:37:09.553Z,-1.01
2022-12-19T01:38:16.278Z,-1.02
2022-12-19T01:39:17.745Z,-1.05
2022-12-19T01:40:20.758Z,-1.15
2022-12-19T01:41:22.567Z,-1.13
2022-12-19T01:42:24.315Z,-1.17
2022-12-19T01:43:29.893Z,-1.13
2022-12-19T01:44:31.503Z,-1.18
2022-12-19T01:45:36.591Z,-1.19
2022-12-19T01:46:50.367Z,-1.23
2022-12-19T01:47:56.544Z,-1.21
2022-12-19T01:48:59.845Z,-1.23
2022-12-19T01:50:03.440Z,-1.24
2022-12-19T01:51:35.185Z,-1.32
2022-12-19T01:52:36.977Z,-1.21
2022-12-19T01:53:45.757Z,-1.09
2022-12-19T01:54:50.649Z,-1.18
2022-12-19T01:55:52.729Z,-1.21
2022-12-19T01:56:57.823Z,-1.27
2022-12-19T01:58:01.336Z,-1.31
2022-12-19T01:59:07.972Z,-1.34
2022-12-19T02:00:10.203Z,-1.45
2022-12-19T02:01:12.291Z,-1.29
2022-12-19T02:02:23.450Z,-1.21
2022-12-19T02:03:28.377Z,-1.26
2022-12-19T02:04:32.649Z,-1.27
2022-12-19T02:05:34.309Z,-1.25
2022-12-19T02:06:36.234Z,-1.23
2022-12-19T02:07:38.758Z,-1.19
2022-12-19T02:08:42.194Z,-1.22
2022-12-19T02:09:56.586Z,-1.39
2022-12-19T02:10:58.222Z,-1.32
2022-12-19T02:12:00.757Z,-1.24
2022-12-19T02:13:02.795Z,-1.20
2022-12-19T02:14:07.026Z,-1.24
2022-12-19T02:15:10.528Z,-1.17
2022-12-19T02:16:42.206Z,-1.40
2022-12-19T02:17:52.969Z,-1.46
2022-12-19T02:19:22.915Z,-1.38
2022-12-19T02:21:12.017Z,-1.35
2022-12-19T02:22:21.192Z,-1.30
2022-12-19T02:23:46.236Z,-1.28
2022-12-19T02:25:00.097Z,-1.21
2022-12-19T02:26:24.634Z,-1.16
2022-12-19T02:27:51.863Z,-1.13
2022-12-19T02:29:19.203Z,-1.11
2022-12-19T02:30:42.305Z,-1.07
2022-12-19T02:31:52.692Z,-1.11
2022-12-19T02:33:03.276Z,-1.11
2022-12-19T02:34:33.326Z,-1.09
2022-12-19T02:36:11.443Z,-1.05
2022-12-19T02:37:26.480Z,-1.10
2022-12-19T02:38:39.197Z,-1.18
2022-12-19T02:39:52.462Z,-1.23
2022-12-19T02:41:05.049Z,-1.21
2022-12-19T02:42:10.297Z,-1.16
2022-12-19T02:43:15.771Z,-1.14
2022-12-19T02:44:31.920Z,-1.15
2022-12-19T02:45:39.422Z,-1.18
2022-12-19T02:46:43.410Z,-1.16
2022-12-19T02:47:47.585Z,-1.12
2022-12-19T02:48:50.046Z,-1.09
2022-12-19T02:49:51.472Z,-1.13
2022-12-19T02:50:53.004Z,-1.12
2022-12-19T02:51:54.440Z,-1.13
2022-12-19T02:52:55.863Z,-1.14
2022-12-19T02:53:57.297Z,-1.14
2022-12-19T02:55:06.625Z,-1.12
2022-12-19T02:56:31.287Z,-1.15
2022-12-19T02:58:11.249Z,-1.23
2022-12-19T02:59:31.000Z,-1.20
2022-12-19T03:00:40.882Z,-1.17
2022-12-19T03:01:49.763Z,-1.24
2022-12-19T03:03:16.976Z,-1.36
2022-12-19T03:04:44.692Z,-1.38
2022-12-19T03:06:14.156Z,-1.39
2022-12-19T03:07:24.386Z,-1.47
2022-12-19T03:08:36.508Z,-1.55
2022-12-19T03:09:50.585Z,-1.55
2022-12-19T03:10:57.283Z,-1.48
2022-12-19T03:12:17.598Z,-1.40
2022-12-19T03:13:22.945Z,-1.46
2022-12-19T03:14:26.510Z,-1.53
2022-12-19T03:15:28.665Z,-1.60
2022-12-19T03:16:30.171Z,-1.66
2022-12-19T03:17:37.055Z,-1.69
2022-12-19T03:18:39.325Z,-1.66
2022-12-19T03:19:41.479Z,-1.70
2022-12-19T03:21:04.422Z,-1.69
2022-12-19T03:22:07.586Z,-1.66
2022-12-19T03:23:09.341Z,-1.65
2022-12-19T03:24:12.944Z,-1.62
2022-12-19T03:25:14.432Z,-1.75
2022-12-19T03:26:21.009Z,-1.84
2022-12-19T03:27:29.195Z,-1.70
2022-12-19T03:28:40.315Z,-1.78
2022-12-19T03:30:00.992Z,-1.89
2022-12-19T03:31:04.190Z,-1.93
2022-12-19T03:32:09.172Z,-2.02
2022-12-19T03:33:14.017Z,-2.00
2022-12-19T03:34:49.141Z,-1.97
2022-12-19T03:35:52.301Z,-1.90
2022-12-19T03:37:01.304Z,-1.98
2022-12-19T03:38:05.575Z,-1.92
2022-12-19T03:39:10.382Z,-1.92
2022-12-19T03:40:17.406Z,-1.91
2022-12-19T03:41:42.099Z,-1.90
2022-12-19T03:43:05.822Z,-1.95
2022-12-19T03:44:09.621Z,-2.00
2022-12-19T03:45:13.567Z,-1.99
2022-12-19T03:46:27.007Z,-1.87
2022-12-19T03:47:33.944Z,-2.09
2022-12-19T03:48:47.914Z,-2.23
2022-12-19T03:49:50.264Z,-2.15
2022-12-19T03:51:16.232Z,-2.23
2022-12-19T03:52:44.097Z,-2.20
2022-12-19T03:53:57.796Z,-2.32
2022-12-19T03:55:22.733Z,-2.21
2022-12-19T03:56:36.197Z,-2.23
2022-12-19T03:57:56.710Z,-2.18
2022-12-19T03:59:05.291Z,-2.14
2022-12-19T04:00:12.771Z,-2.17
2022-12-19T04:01:14.562Z,-2.22
2022-12-19T04:02:19.568Z,-2.13
2022-12-19T04:03:22.428Z,-2.19
2022-12-19T04:04:25.900Z,-2.20
2022-12-19T04:05:29.211Z,-2.27
2022-12-19T04:06:33.097Z,-2.22
2022-12-19T04:07:36.720Z,-2.20
2022-12-19T04:08:38.660Z,-2.16
2022-12-19T04:09:42.512Z,-2.10
2022-12-19T04:10:50.120Z,-2.05
2022-12-19T04:11:57.888Z,-2.02
2022-12-19T04:13:04.987Z,-1.93
2022-12-19T04:14:11.733Z,-2.05
2022-12-19T04:15:14.038Z,-1.87
2022-12-19T04:16:27.602Z,-1.90
2022-12-19T04:17:45.272Z,-1.88
2022-12-19T04:18:52.869Z,-1.90
2022-12-19T04:20:10.633Z,-1.94
2022-12-19T04:21:20.185Z,-2.18
2022-12-19T04:22:37.318Z,-2.09
2022-12-19T04:23:45.322Z,-2.17
2022-12-19T04:24:50.101Z,-2.01
2022-12-19T04:25:58.196Z,-1.98
2022-12-19T04:27:03.652Z,-1.87
2022-12-19T04:28:15.195Z,-1.77
2022-12-19T04:29:18.256Z,-1.73
2022-12-19T04:30:20.099Z,-1.84
2022-12-19T04:31:22.953Z,-1.91
2022-12-19T04:32:27.304Z,-1.83
2022-12-19T04:33:28.743Z,-1.73
2022-12-19T04:34:30.247Z,-1.74
2022-12-19T04:35:31.920Z,-1.68
2022-12-19T04:36:33.781Z,-1.73
2022-12-19T04:37:35.394Z,-1.81
2022-12-19T04:38:37.132Z,-1.69
2022-12-19T04:39:38.655Z,-1.70
2022-12-19T04:40:41.755Z,-1.73
2022-12-19T04:41:43.363Z,-1.70
2022-12-19T04:42:45.167Z,-1.77
2022-12-19T04:43:46.733Z,-1.83
2022-12-19T04:44:48.206Z,-1.77
2022-12-19T04:45:54.037Z,-1.72
2022-12-19T04:46:58.511Z,-1.66
2022-12-19T04:48:00.039Z,-1.63
2022-12-19T04:49:01.703Z,-1.63
2022-12-19T04:50:04.026Z,-1.78
2022-12-19T04:51:05.611Z,-1.91
2022-12-19T04:52:07.129Z,-1.77
2022-12-19T04:53:09.993Z,-1.68
2022-12-19T04:54:12.755Z,-1.79
2022-12-19T04:55:14.298Z,-1.68
2022-12-19T04:56:15.820Z,-1.65
2022-12-19T04:57:17.300Z,-1.59
2022-12-19T04:58:21.865Z,-1.65
2022-12-19T04:59:23.948Z,-1.71
2022-12-19T05:00:25.413Z,-1.80
2022-12-19T05:01:27.255Z,-1.92
2022-12-19T05:02:28.978Z,-1.83
2022-12-19T05:03:30.687Z,-1.79
2022-12-19T05:04:32.178Z,-1.86
2022-12-19T05:05:33.695Z,-1.75
2022-12-19T05:06:35.137Z,-1.69
2022-12-19T05:07:36.937Z,-1.66
2022-12-19T05:08:40.342Z,-1.52
2022-12-19T05:09:41.786Z,-1.57
2022-12-19T05:10:43.263Z,-1.51
2022-12-19T05:11:45.428Z,-1.53
2022-12-19T05:12:46.881Z,-1.55
2022-12-19T05:13:49.961Z,-1.47
2022-12-19T05:14:51.543Z,-1.43
2022-12-19T05:16:01.444Z,-1.47
2022-12-19T05:17:03.625Z,-1.53
2022-12-19T05:18:05.235Z,-1.59
2022-12-19T05:19:06.728Z,-1.50
2022-12-19T05:20:09.070Z,-1.49
2022-12-19T05:21:11.043Z,-1.45
2022-12-19T05:22:12.859Z,-1.39
2022-12-19T05:23:17.794Z,-1.42
2022-12-19T05:24:19.568Z,-1.41
2022-12-19T05:25:21.039Z,-1.43
2022-12-19T05:26:22.516Z,-1.42
2022-12-19T05:27:24.284Z,-1.42
2022-12-19T05:28:25.818Z,-1.33
2022-12-19T05:29:27.236Z,-1.24
2022-12-19T05:30:28.666Z,-1.25
2022-12-19T05:31:30.434Z,-1.22
2022-12-19T05:32:32.745Z,-1.18
2022-12-19T05:33:34.413Z,-1.24
2022-12-19T05:34:35.898Z,-1.24
2022-12-19T05:35:38.058Z,-1.18
2022-12-19T05:36:39.874Z,-1.18
2022-12-19T05:37:41.307Z,-1.17
2022-12-19T05:38:43.216Z,-1.08
2022-12-19T05:39:44.676Z,-1.04
2022-12-19T05:40:46.120Z,-1.00
2022-12-19T05:41:49.167Z,-0.92
2022-12-19T05:42:50.885Z,-0.90
2022-12-19T05:43:54.849Z,-0.87
2022-12-19T05:44:56.311Z,-0.89
2022-12-19T05:45:57.730Z,-0.92
2022-12-19T05:46:59.253Z,-0.90
2022-12-19T05:48:01.592Z,-0.82
2022-12-19T05:49:03.538Z,-0.86
2022-12-19T05:50:05.841Z,-0.84
2022-12-19T05:51:07.299Z,-0.78
2022-12-19T05:52:10.451Z,-0.67
2022-12-19T05:53:11.802Z,-0.64
2022-12-19T05:54:13.260Z,-0.60
2022-12-19T05:55:14.819Z,-0.55
2022-12-19T05:56:19.560Z,-0.49
2022-12-19T05:57:21.376Z,-0.53
2022-12-19T05:58:22.785Z,-0.52
2022-12-19T05:59:24.379Z,-0.46
2022-12-19T06:00:25.830Z,-0.48
2022-12-19T06:01:28.643Z,-0.51
2022-12-19T06:02:33.732Z,-0.48
2022-12-19T06:03:35.752Z,-0.48
2022-12-19T06:04:37.281Z,-0.37
2022-12-19T06:05:38.963Z,-0.41
2022-12-19T06:06:40.541Z,-0.35
2022-12-19T06:07:41.955Z,-0.43
2022-12-19T06:08:43.893Z,-0.44
2022-12-19T06:09:45.310Z,-0.48
2022-12-19T06:10:46.741Z,-0.56
2022-12-19T06:11:48.248Z,-0.42
2022-12-19T06:12:49.648Z,-0.44
2022-12-19T06:13:51.995Z,-0.49
2022-12-19T06:14:53.443Z,-0.49
2022-12-19T06:16:02.844Z,-0.51
2022-12-19T06:17:04.638Z,-0.55
2022-12-19T06:18:06.114Z,-0.49
2022-12-19T06:19:07.611Z,-0.50
2022-12-19T06:20:09.656Z,-0.52
2022-12-19T06:21:14.615Z,-0.56
2022-12-19T06:22:16.087Z,-0.56
2022-12-19T06:23:17.557Z,-0.52
2022-12-19T06:24:19.067Z,-0.52
2022-12-19T06:25:20.543Z,-0.45
2022-12-19T06:26:22.640Z,-0.39
2022-12-19T06:27:24.112Z,-0.39
2022-12-19T06:28:26.674Z,-0.37
2022-12-19T06:29:28.172Z,-0.41
2022-12-19T06:30:29.720Z,-0.41
2022-12-19T06:31:31.229Z,-0.36
2022-12-19T06:32:37.693Z,-0.35
2022-12-19T06:33:39.880Z,-0.33
2022-12-19T06:35:03.586Z,-0.40
2022-12-19T06:36:16.863Z,-0.36
2022-12-19T06:37:18.342Z,-0.28
2022-12-19T06:38:19.776Z,-0.30
2022-12-19T06:39:22.386Z,-0.25
2022-12-19T06:40:42.438Z,-0.19
2022-12-19T06:42:02.802Z,-0.14
2022-12-19T06:43:04.245Z,-0.09
2022-12-19T06:44:09.533Z,-0.29
2022-12-19T06:45:12.316Z,-0.30
2022-12-19T06:46:14.162Z,-0.26
2022-12-19T06:47:16.253Z,-0.19
2022-12-19T06:48:17.672Z,-0.17
2022-12-19T06:49:19.545Z,-0.07
2022-12-19T06:50:21.003Z,-0.07
2022-12-19T06:51:23.675Z,-0.10
2022-12-19T06:52:25.769Z,-0.15
2022-12-19T06:53:27.863Z,-0.22
2022-12-19T06:54:29.753Z,-0.13
2022-12-19T06:55:31.671Z,-0.17
2022-12-19T06:56:37.934Z,-0.32
2022-12-19T06:57:45.919Z,-0.47
2022-12-19T06:58:47.721Z,-0.58
2022-12-19T06:59:49.154Z,-0.64
2022-12-19T07:00:51.024Z,-0.67
2022-12-19T07:02:08.285Z,-0.65
2022-12-19T07:03:13.616Z,-0.57
2022-12-19T07:04:23.868Z,-0.46
2022-12-19T07:05:26.195Z,-0.42
2022-12-19T07:06:28.564Z,-0.37
2022-12-19T07:07:30.166Z,-0.40
2022-12-19T07:08:31.833Z,-0.58
2022-12-19T07:09:34.011Z,-0.61
2022-12-19T07:10:35.731Z,-0.60
2022-12-19T07:11:37.524Z,-0.75
2022-12-19T07:12:38.965Z,-0.71
2022-12-19T07:13:40.437Z,-0.62
2022-12-19T07:14:42.258Z,-0.65
2022-12-19T07:15:43.779Z,-0.60
2022-12-19T07:16:47.279Z,-0.52
2022-12-19T07:17:48.852Z,-0.49
2022-12-19T07:18:50.360Z,-0.47
2022-12-19T07:19:54.472Z,-0.51
2022-12-19T07:20:56.855Z,-0.44
2022-12-19T07:22:00.488Z,-0.43
2022-12-19T07:23:04.460Z,-0.36
2022-12-19T07:24:07.149Z,-0.30
2022-12-19T07:25:10.596Z,-0.24
2022-12-19T07:26:13.147Z,-0.28
2022-12-19T07:27:14.880Z,-0.17
2022-12-19T07:28:16.743Z,-0.07
2022-12-19T07:29:18.207Z,-0.02
2022-12-19T07:30:19.920Z,-0.15
2022-12-19T07:31:21.760Z,-0.20
2022-12-19T07:32:23.292Z,-0.20
2022-12-19T07:33:24.873Z,-0.15
2022-12-19T07:34:26.507Z,-0.32
2022-12-19T07:35:27.957Z,-0.32
2022-12-19T07:36:29.741Z,-0.35
2022-12-19T07:37:31.201Z,-0.36
2022-12-19T07:38:32.668Z,-0.28
2022-12-19T07:39:34.063Z,-0.21
2022-12-19T07:40:35.851Z,-0.20
2022-12-19T07:41:38.812Z,-0.24
2022-12-19T07:42:40.343Z,-0.24
2022-12-19T07:43:41.836Z,-0.23
2022-12-19T07:44:43.321Z,-0.23
2022-12-19T07:45:48.175Z,-0.21
2022-12-19T07:46:49.654Z,-0.17
2022-12-19T07:47:51.068Z,-0.09
2022-12-19T07:48:52.470Z,-0.15
2022-12-19T07:49:54.049Z,-0.31
2022-12-19T07:50:55.798Z,-0.38
2022-12-19T07:51:57.276Z,-0.37
2022-12-19T07:52:59.045Z,-0.27
2022-12-19T07:54:00.457Z,-0.39
2022-12-19T07:55:02.156Z,-0.43
2022-12-19T07:56:03.939Z,-0.41
2022-12-19T07:57:05.775Z,-0.39
2022-12-19T07:58:07.780Z,-0.37
2022-12-19T07:59:09.369Z,-0.46
2022-12-19T08:00:11.540Z,-0.38
2022-12-19T08:01:13.559Z,-0.34
2022-12-19T08:02:15.083Z,-0.26
2022-12-19T08:03:16.688Z,-0.26
2022-12-19T08:04:18.168Z,-0.28
2022-12-19T08:05:20.032Z,-0.25
2022-12-19T08:06:21.921Z,-0.30
2022-12-19T08:07:23.415Z,-0.24
2022-12-19T08:08:24.916Z,-0.12
2022-12-19T08:09:27.759Z,-0.06
2022-12-19T08:10:29.672Z,0.01
2022-12-19T08:11:31.124Z,0.13
2022-12-19T08:12:33.740Z,0.07
2022-12-19T08:13:40.798Z,0.13
2022-12-19T08:14:44.652Z,0.13
2022-12-19T08:15:46.552Z,0.10
2022-12-19T08:17:18.726Z,0.13
2022-12-19T08:18:09.434Z,0.10
2022-12-19T08:19:11.137Z,0.10
2022-12-19T08:20:13.434Z,0.13
2022-12-19T08:21:15.556Z,0.15
2022-12-19T08:22:17.074Z,0.15
2022-12-19T08:23:22.036Z,0.19
2022-12-19T08:24:23.509Z,0.07
2022-12-19T08:25:25.140Z,0.03
2022-12-19T08:26:28.313Z,0.11
2022-12-19T08:27:31.603Z,0.18
2022-12-19T08:28:34.465Z,0.18
2022-12-19T08:29:35.937Z,0.17
2022-12-19T08:30:41.402Z,0.05
2022-12-19T08:31:43.296Z,0.11
2022-12-19T08:32:45.304Z,0.23
2022-12-19T08:33:47.606Z,0.27
2022-12-19T08:34:50.093Z,0.18
2022-12-19T08:35:51.667Z,0.11
2022-12-19T08:36:53.603Z,0.23
2022-12-19T08:37:55.106Z,0.36
2022-12-19T08:38:56.548Z,0.45
2022-12-19T08:39:58.545Z,0.44
2022-12-19T08:41:00.273Z,0.53
2022-12-19T08:42:02.228Z,0.59
2022-12-19T08:43:03.826Z,0.59
2022-12-19T08:44:05.414Z,0.64
2022-12-19T08:45:07.839Z,0.68
2022-12-19T08:46:10.271Z,0.65
2022-12-19T08:47:11.738Z,0.72
2022-12-19T08:48:13.155Z,0.69
2022-12-19T08:49:15.524Z,0.73
2022-12-19T08:50:17.208Z,0.79
2022-12-19T08:51:20.128Z,0.90
2022-12-19T08:52:21.644Z,0.97
2022-12-19T08:53:26.559Z,0.98
2022-12-19T08:54:28.556Z,0.99
2022-12-19T08:55:30.084Z,1.02
2022-12-19T08:56:32.963Z,0.85
2022-12-19T08:57:34.468Z,0.84
2022-12-19T08:58:36.655Z,0.83
2022-12-19T08:59:38.093Z,0.81
2022-12-19T09:00:40.298Z,0.81
2022-12-19T09:01:42.331Z,0.88
2022-12-19T09:02:44.087Z,0.92
2022-12-19T09:05:06.247Z,0.83
2022-12-19T09:06:03.479Z,0.90
2022-12-19T09:06:31.284Z,0.93
2022-12-19T09:07:34.564Z,0.97
2022-12-19T09:08:40.973Z,1.10
2022-12-19T09:09:42.557Z,1.08
2022-12-19T09:10:44.048Z,1.10
2022-12-19T09:11:48.295Z,1.09
2022-12-19T09:12:55.751Z,1.00
2022-12-19T09:13:59.653Z,0.91
2022-12-19T09:15:01.108Z,0.87
2022-12-19T09:16:08.920Z,0.89
2022-12-19T09:17:10.810Z,0.92
2022-12-19T09:18:12.293Z,0.93
2022-12-19T09:19:16.338Z,0.99
2022-12-19T09:20:22.990Z,1.04
2022-12-19T09:21:27.816Z,1.01
2022-12-19T09:22:29.755Z,0.89
2022-12-19T09:23:34.403Z,0.71
2022-12-19T09:24:39.139Z,0.64
2022-12-19T09:25:41.288Z,0.53
2022-12-19T09:26:44.393Z,0.58
2022-12-19T09:28:17.974Z,0.57
2022-12-19T09:29:19.634Z,0.68
2022-12-19T09:30:22.594Z,0.89
2022-12-19T09:31:25.465Z,1.06
2022-12-19T09:32:27.062Z,1.17
2022-12-19T09:33:30.684Z,1.02
2022-12-19T09:34:37.335Z,1.02
2022-12-19T09:35:39.733Z,0.85
2022-12-19T09:36:41.716Z,0.73
2022-12-19T09:37:43.156Z,0.72
2022-12-19T09:38:45.804Z,0.73
2022-12-19T09:39:48.358Z,0.79
2022-12-19T09:41:10.160Z,0.98
2022-12-19T09:42:26.616Z,1.17
2022-12-19T09:43:54.693Z,1.19
2022-12-19T09:45:08.751Z,1.11
2022-12-19T09:46:19.295Z,1.07
2022-12-19T09:47:25.262Z,1.06
2022-12-19T09:48:26.913Z,1.06
2022-12-19T09:49:34.480Z,1.09
2022-12-19T09:51:11.161Z,1.14
2022-12-19T09:52:23.307Z,1.30
2022-12-19T09:53:38.198Z,1.35
2022-12-19T09:54:45.597Z,1.37
2022-12-19T09:55:48.183Z,1.39
2022-12-19T09:56:54.343Z,1.35
2022-12-19T09:58:04.737Z,1.32
2022-12-19T09:59:16.388Z,1.27
2022-12-19T10:00:20.053Z,1.13
2022-12-19T10:01:30.850Z,1.28
2022-12-19T10:02:45.681Z,1.35
2022-12-19T10:03:59.222Z,1.26
2022-12-19T10:05:31.106Z,1.29
2022-12-19T10:07:16.111Z,1.28
2022-12-19T10:08:08.267Z,1.16
2022-12-19T10:10:29.299Z,1.12
2022-12-19T10:12:40.458Z,0.99
2022-12-19T10:12:45.447Z,1.11
2022-12-19T10:13:49.776Z,1.07
2022-12-19T10:15:43.134Z,1.21
2022-12-19T10:17:26.796Z,1.27
2022-12-19T10:18:56.789Z,1.29
2022-12-19T10:20:19.504Z,1.31
2022-12-19T10:22:15.521Z,1.06
2022-12-19T10:23:18.923Z,1.07
2022-12-19T10:24:55.236Z,1.17
2022-12-19T10:26:22.483Z,1.30
2022-12-19T10:27:37.542Z,1.37
2022-12-19T10:28:45.681Z,1.37
2022-12-19T10:30:01.267Z,1.37
2022-12-19T10:31:22.189Z,1.30
2022-12-19T10:32:40.915Z,1.21
2022-12-19T10:33:59.469Z,1.07
2022-12-19T10:35:01.537Z,1.07
2022-12-19T10:36:10.472Z,1.02
2022-12-19T10:37:28.785Z,1.11
2022-12-19T10:38:46.224Z,1.41
2022-12-19T10:40:00.841Z,1.52
2022-12-19T10:41:24.125Z,1.58
2022-12-19T10:42:28.664Z,1.66
2022-12-19T10:43:52.159Z,1.79
2022-12-19T10:44:57.461Z,1.78
2022-12-19T10:46:03.795Z,1.77
2022-12-19T10:47:05.495Z,1.65
2022-12-19T10:48:15.733Z,1.48
2022-12-19T10:49:36.539Z,1.44
2022-12-19T10:50:38.369Z,1.42
2022-12-19T10:51:40.861Z,1.59
2022-12-19T10:52:54.772Z,1.65
2022-12-19T10:53:58.895Z,1.76
2022-12-19T10:55:00.349Z,1.81
2022-12-19T10:56:13.076Z,1.69
2022-12-19T10:57:26.169Z,1.63
2022-12-19T10:58:36.540Z,1.82
2022-12-19T10:59:38.043Z,1.83
2022-12-19T11:01:01.727Z,1.84
2022-12-19T11:02:27.265Z,1.94
2022-12-19T11:03:29.381Z,1.89
2022-12-19T11:04:36.465Z,1.87
2022-12-19T11:05:51.270Z,1.91
2022-12-19T11:07:03.593Z,2.00
2022-12-19T11:08:08.131Z,1.97
2022-12-19T11:09:18.858Z,1.87
2022-12-19T11:12:05.674Z,1.75
2022-12-19T11:15:41.010Z,1.93
2022-12-19T11:17:05.001Z,1.97
2022-12-19T11:19:51.746Z,2.12
2022-12-19T11:23:22.252Z,2.19
2022-12-19T11:24:24.707Z,2.22
2022-12-19T11:29:33.802Z,2.34
2022-12-19T11:29:34.036Z,2.26
2022-12-19T11:29:38.747Z,2.38
2022-12-19T11:29:47.129Z,2.31
2022-12-19T11:30:08.652Z,2.23
2022-12-19T11:30:37.988Z,2.19
2022-12-19T11:30:39.347Z,2.22
2022-12-19T11:32:42.997Z,2.43
2022-12-19T11:33:46.227Z,2.47
2022-12-19T11:34:49.625Z,2.40
2022-12-19T11:35:54.344Z,2.42
2022-12-19T11:37:03.794Z,2.47
2022-12-19T11:38:08.360Z,2.40
2022-12-19T11:39:22.175Z,2.46
2022-12-19T11:40:49.250Z,2.18
2022-12-19T11:42:10.516Z,2.38
2022-12-19T11:44:56.967Z,2.35
2022-12-19T11:46:08.301Z,2.37
2022-12-19T11:47:35.989Z,2.46
2022-12-19T11:48:40.127Z,2.57
2022-12-19T11:49:51.833Z,2.69
2022-12-19T11:51:14.824Z,2.75
2022-12-19T11:53:57.282Z,2.77
2022-12-19T11:55:15.720Z,2.74
2022-12-19T11:56:21.746Z,2.64
2022-12-19T11:57:24.628Z,2.64
2022-12-19T11:58:31.660Z,2.78
2022-12-19T11:59:38.191Z,2.89
2022-12-19T12:00:50.962Z,2.98
2022-12-19T12:02:16.895Z,2.97
2022-12-19T12:04:02.299Z,2.77
2022-12-19T12:05:16.661Z,2.84
2022-12-19T12:06:20.797Z,2.93
2022-12-19T12:08:16.211Z,2.98
2022-12-19T12:12:48.295Z,3.11
2022-12-19T12:16:16.098Z,3.06
2022-12-19T12:21:46.711Z,2.97
2022-12-19T12:24:13.255Z,3.17
2022-12-19T12:30:45.033Z,3.24
2022-12-19T12:31:15.117Z,3.17
2022-12-19T12:31:16.284Z,3.16
2022-12-19T12:31:17.815Z,3.20
2022-12-19T12:31:28.655Z,3.16
2022-12-19T12:31:41.207Z,3.39
2022-12-19T12:31:44.724Z,3.33
2022-12-19T12:31:49.210Z,3.19
2022-12-19T12:31:54.114Z,3.29
2022-12-19T12:35:54.428Z,3.23
2022-12-19T12:37:15.846Z,3.31
2022-12-19T12:38:36.660Z,3.24
2022-12-19T12:39:50.531Z,3.31
2022-12-19T12:41:44.080Z,3.23
2022-12-19T12:43:02.920Z,3.23
2022-12-19T12:44:11.253Z,3.05
2022-12-19T12:45:19.219Z,3.05
2022-12-19T12:46:26.142Z,3.07
2022-12-19T12:47:29.001Z,3.17
2022-12-19T12:48:36.709Z,3.18
2022-12-19T12:49:48.384Z,3.16
2022-12-19T12:50:54.981Z,3.13
2022-12-19T12:51:59.981Z,3.07
2022-12-19T12:53:07.373Z,3.02
2022-12-19T12:54:17.385Z,3.00
2022-12-19T12:55:40.252Z,3.07
2022-12-19T12:56:42.651Z,3.02
2022-12-19T12:57:44.123Z,3.05
2022-12-19T12:58:49.802Z,3.15
2022-12-19T13:00:17.843Z,3.27
2022-12-19T13:01:32.514Z,3.32
2022-12-19T13:02:34.309Z,3.38
2022-12-19T13:03:41.920Z,3.49
2022-12-19T13:04:56.784Z,3.52
2022-12-19T13:06:20.995Z,3.54
2022-12-19T13:07:30.046Z,3.50
2022-12-19T13:08:34.269Z,3.49
2022-12-19T13:09:36.968Z,3.53
2022-12-19T13:10:40.034Z,3.53
2022-12-19T13:12:04.855Z,3.50
2022-12-19T13:13:17.408Z,3.53
2022-12-19T13:14:39.624Z,3.51
2022-12-19T13:15:45.823Z,3.61
2022-12-19T13:16:53.005Z,3.69
2022-12-19T13:17:54.703Z,3.65
2022-12-19T13:19:19.615Z,3.64
2022-12-19T13:20:24.097Z,3.60
2022-12-19T13:22:04.271Z,3.52
2022-12-19T13:23:26.011Z,3.52
2022-12-19T13:24:39.158Z,3.52
2022-12-19T13:25:40.613Z,3.51
2022-12-19T13:26:49.288Z,3.49
2022-12-19T13:27:57.494Z,3.56
2022-12-19T13:29:26.549Z,3.53
2022-12-19T13:31:11.636Z,3.57
2022-12-19T13:32:15.683Z,3.51
2022-12-19T13:33:17.176Z,3.50
2022-12-19T13:34:19.302Z,3.55
2022-12-19T13:36:25.238Z,3.61
2022-12-19T13:39:55.542Z,3.65
2022-12-19T13:39:59.854Z,3.60
2022-12-19T13:40:08.777Z,3.57
2022-12-19T13:41:47.895Z,3.62
2022-12-19T13:43:19.903Z,3.52
2022-12-19T13:44:22.427Z,3.65
2022-12-19T13:45:27.812Z,3.71
2022-12-19T13:46:42.797Z,3.78
2022-12-19T13:47:45.198Z,3.85
2022-12-19T13:48:50.134Z,3.82
2022-12-19T13:49:52.848Z,3.79
2022-12-19T13:50:55.497Z,3.75
2022-12-19T13:51:58.422Z,3.74
2022-12-19T13:52:59.943Z,3.73
2022-12-19T13:54:01.351Z,3.70
2022-12-19T13:55:03.773Z,3.69
2022-12-19T13:56:10.653Z,3.73
2022-12-19T13:57:30.129Z,3.74
2022-12-19T13:58:36.628Z,3.76
2022-12-19T13:59:40.574Z,3.84
2022-12-19T14:01:07.234Z,3.84
2022-12-19T14:02:48.551Z,3.84
2022-12-19T14:03:53.410Z,3.75
2022-12-19T14:04:55.375Z,3.75
2022-12-19T14:06:18.598Z,3.71
2022-12-19T14:07:30.414Z,3.71
2022-12-19T14:08:39.953Z,3.66
2022-12-19T14:11:30.565Z,3.72
2022-12-19T14:11:32.013Z,3.70
2022-12-19T14:13:49.216Z,3.71
2022-12-19T14:14:38.016Z,3.70
2022-12-19T14:15:43.776Z,3.77
2022-12-19T14:16:46.325Z,3.80
2022-12-19T14:17:49.198Z,3.84
2022-12-19T14:18:50.751Z,3.85
2022-12-19T14:19:53.540Z,3.77
2022-12-19T14:22:06.238Z,3.69
2022-12-19T14:22:43.408Z,3.66
2022-12-19T14:23:45.260Z,3.65
2022-12-19T14:27:14.228Z,3.55
2022-12-19T14:28:17.243Z,3.62
2022-12-19T14:28:20.291Z,3.65
2022-12-19T14:30:26.062Z,3.65
2022-12-19T14:31:04.170Z,3.76
2022-12-19T14:33:39.227Z,3.72
2022-12-19T14:34:04.664Z,3.68
2022-12-19T14:36:06.295Z,3.72
2022-12-19T14:36:46.915Z,3.72
2022-12-19T14:39:19.954Z,3.84
2022-12-19T14:39:29.646Z,3.86
2022-12-19T14:40:33.984Z,3.81
2022-12-19T14:43:06.314Z,3.79
2022-12-19T14:44:00.581Z,3.76
2022-12-19T14:51:09.060Z,3.73
2022-12-19T14:54:07.009Z,3.78
2022-12-19T14:54:10.263Z,3.75
2022-12-19T14:54:10.512Z,3.81
2022-12-19T14:54:25.519Z,3.76
2022-12-19T14:54:37.572Z,3.74
2022-12-19T14:56:24.728Z,3.84
2022-12-19T14:58:50.785Z,3.82
2022-12-19T14:58:57.802Z,3.86
2022-12-19T14:59:59.763Z,3.83
2022-12-19T15:01:09.628Z,3.87
2022-12-19T15:02:15.823Z,3.80
2022-12-19T15:03:33.358Z,3.72
2022-12-19T15:04:50.295Z,3.73
2022-12-19T15:06:32.100Z,3.69
2022-12-19T15:07:29.536Z,3.65
2022-12-19T15:09:01.241Z,3.64
2022-12-19T15:11:05.266Z,3.67
2022-12-19T15:14:50.731Z,3.71
2022-12-19T15:14:53.151Z,3.68
2022-12-19T15:14:59.257Z,3.81
2022-12-19T15:16:04.024Z,3.76